sensor_id;sensor_type;location;lat;lon;timestamp;temperature;humidity
17333;DHT22;8784;50.94667800;7.08448400;2023-05-27T00:01:55;13.40;71.00
17333;DHT22;8784;50.94667800;7.08448400;2023-05-27T00:04:24;13.30;70.90
17333;DHT22;8784;50.94667800;7.08448400;2023-05-27T00:06:53;13.30;71.20
17333;DHT22;8784;50.94667800;7.08448400;2023-05-27T00:09:20;13.20;71.40
17333;DHT22;8784;50.94667800;7.08448400;2023-05-27T00:11:47;13.10;71.30
17333;DHT22;8784;50.94667800;7.08448400;2023-05-27T00:14:14;13.10;72.20
17333;DHT22;8784;50.94667800;7.08448400;2023-05-27T00:16:42;13.10;71.50
17333;DHT22;8784;50.94667800;7.08448400;2023-05-27T00:19:09;13.00;71.60
17333;DHT22;8784;50.94667800;7.08448400;2023-05-27T00:21:37;13.00;71.80
17333;DHT22;8784;50.94667800;7.08448400;2023-05-27T00:24:05;12.90;71.90
17333;DHT22;8784;50.94667800;7.08448400;2023-05-27T00:26:32;12.90;72.10
17333;DHT22;8784;50.94667800;7.08448400;2023-05-27T00:28:59;12.90;72.10
17333;DHT22;8784;50.94667800;7.08448400;2023-05-27T00:31:26;12.80;72.40
17333;DHT22;8784;50.94667800;7.08448400;2023-05-27T00:33:53;12.70;72.40
17333;DHT22;8784;50.94667800;7.08448400;2023-05-27T00:36:21;12.70;72.70
17333;DHT22;8784;50.94667800;7.08448400;2023-05-27T00:38:47;12.60;72.80
17333;DHT22;8784;50.94667800;7.08448400;2023-05-27T00:41:16;12.60;72.80
17333;DHT22;8784;50.94667800;7.08448400;2023-05-27T00:43:43;12.50;73.00
17333;DHT22;8784;50.94667800;7.08448400;2023-05-27T00:46:10;12.50;73.20
17333;DHT22;8784;50.94667800;7.08448400;2023-05-27T00:48:37;12.40;73.40
17333;DHT22;8784;50.94667800;7.08448400;2023-05-27T00:51:04;12.40;73.60
17333;DHT22;8784;50.94667800;7.08448400;2023-05-27T00:53:38;12.40;73.70
17333;DHT22;8784;50.94667800;7.08448400;2023-05-27T00:56:07;12.30;73.70
17333;DHT22;8784;50.94667800;7.08448400;2023-05-27T00:58:35;12.30;74.00
17333;DHT22;8784;50.94667800;7.08448400;2023-05-27T01:01:03;12.30;74.10
17333;DHT22;8784;50.94667800;7.08448400;2023-05-27T01:03:31;12.30;74.10
17333;DHT22;8784;50.94667800;7.08448400;2023-05-27T01:06:05;12.20;74.40
17333;DHT22;8784;50.94667800;7.08448400;2023-05-27T01:08:40;12.10;74.70
17333;DHT22;8784;50.94667800;7.08448400;2023-05-27T01:11:10;12.10;74.80
17333;DHT22;8784;50.94667800;7.08448400;2023-05-27T01:13:41;12.10;75.00
17333;DHT22;8784;50.94667800;7.08448400;2023-05-27T01:16:11;12.00;75.00
17333;DHT22;8784;50.94667800;7.08448400;2023-05-27T01:18:39;12.00;75.30
17333;DHT22;8784;50.94667800;7.08448400;2023-05-27T01:21:11;12.00;75.30
17333;DHT22;8784;50.94667800;7.08448400;2023-05-27T01:23:41;11.90;75.50
17333;DHT22;8784;50.94667800;7.08448400;2023-05-27T01:26:08;11.90;75.70
17333;DHT22;8784;50.94667800;7.08448400;2023-05-27T01:28:36;11.80;75.80
17333;DHT22;8784;50.94667800;7.08448400;2023-05-27T01:31:08;11.80;75.80
17333;DHT22;8784;50.94667800;7.08448400;2023-05-27T01:33:38;11.70;75.80
17333;DHT22;8784;50.94667800;7.08448400;2023-05-27T01:36:10;11.80;76.20
17333;DHT22;8784;50.94667800;7.08448400;2023-05-27T01:38:42;11.80;76.20
17333;DHT22;8784;50.94667800;7.08448400;2023-05-27T01:41:09;11.70;76.30
17333;DHT22;8784;50.94667800;7.08448400;2023-05-27T01:43:37;11.70;76.40
17333;DHT22;8784;50.94667800;7.08448400;2023-05-27T01:46:06;11.70;76.60
17333;DHT22;8784;50.94667800;7.08448400;2023-05-27T01:48:32;11.70;76.80
17333;DHT22;8784;50.94667800;7.08448400;2023-05-27T01:50:59;11.60;76.80
17333;DHT22;8784;50.94667800;7.08448400;2023-05-27T01:53:26;11.60;77.00
17333;DHT22;8784;50.94667800;7.08448400;2023-05-27T01:55:54;11.60;77.10
17333;DHT22;8784;50.94667800;7.08448400;2023-05-27T01:58:21;11.60;77.30
17333;DHT22;8784;50.94667800;7.08448400;2023-05-27T02:00:48;11.50;77.10
17333;DHT22;8784;50.94667800;7.08448400;2023-05-27T02:03:15;11.50;77.50
17333;DHT22;8784;50.94667800;7.08448400;2023-05-27T02:05:42;11.50;77.70
17333;DHT22;8784;50.94667800;7.08448400;2023-05-27T02:08:10;11.40;77.60
17333;DHT22;8784;50.94667800;7.08448400;2023-05-27T02:10:37;11.40;77.90
17333;DHT22;8784;50.94667800;7.08448400;2023-05-27T02:13:05;11.40;77.90
17333;DHT22;8784;50.94667800;7.08448400;2023-05-27T02:15:32;11.30;78.00
17333;DHT22;8784;50.94667800;7.08448400;2023-05-27T02:17:59;11.30;78.00
17333;DHT22;8784;50.94667800;7.08448400;2023-05-27T02:20:26;11.30;78.20
17333;DHT22;8784;50.94667800;7.08448400;2023-05-27T02:22:54;11.20;78.30
17333;DHT22;8784;50.94667800;7.08448400;2023-05-27T02:25:21;11.20;78.50
17333;DHT22;8784;50.94667800;7.08448400;2023-05-27T02:27:48;11.20;78.80
17333;DHT22;8784;50.94667800;7.08448400;2023-05-27T02:30:19;11.10;78.90
17333;DHT22;8784;50.94667800;7.08448400;2023-05-27T02:32:45;11.10;79.20
17333;DHT22;8784;50.94667800;7.08448400;2023-05-27T02:35:13;11.00;79.30
17333;DHT22;8784;50.94667800;7.08448400;2023-05-27T02:37:40;11.00;79.60
17333;DHT22;8784;50.94667800;7.08448400;2023-05-27T02:40:08;11.00;79.70
17333;DHT22;8784;50.94667800;7.08448400;2023-05-27T02:42:36;10.90;79.80
17333;DHT22;8784;50.94667800;7.08448400;2023-05-27T02:45:06;10.90;80.20
17333;DHT22;8784;50.94667800;7.08448400;2023-05-27T02:47:35;10.90;80.20
17333;DHT22;8784;50.94667800;7.08448400;2023-05-27T02:50:02;10.80;80.30
17333;DHT22;8784;50.94667800;7.08448400;2023-05-27T02:52:29;10.80;80.60
17333;DHT22;8784;50.94667800;7.08448400;2023-05-27T02:54:56;10.80;80.80
17333;DHT22;8784;50.94667800;7.08448400;2023-05-27T02:57:23;10.70;80.90
17333;DHT22;8784;50.94667800;7.08448400;2023-05-27T02:59:50;10.70;81.10
17333;DHT22;8784;50.94667800;7.08448400;2023-05-27T03:02:17;10.70;81.10
17333;DHT22;8784;50.94667800;7.08448400;2023-05-27T03:04:45;10.70;81.40
17333;DHT22;8784;50.94667800;7.08448400;2023-05-27T03:07:13;10.70;81.50
17333;DHT22;8784;50.94667800;7.08448400;2023-05-27T03:09:40;10.60;81.50
17333;DHT22;8784;50.94667800;7.08448400;2023-05-27T03:12:07;10.60;81.60
17333;DHT22;8784;50.94667800;7.08448400;2023-05-27T03:14:34;10.50;81.70
17333;DHT22;8784;50.94667800;7.08448400;2023-05-27T03:17:01;10.40;82.00
17333;DHT22;8784;50.94667800;7.08448400;2023-05-27T03:19:28;10.40;82.40
17333;DHT22;8784;50.94667800;7.08448400;2023-05-27T03:21:56;10.40;82.70
17333;DHT22;8784;50.94667800;7.08448400;2023-05-27T03:24:23;10.40;82.80
17333;DHT22;8784;50.94667800;7.08448400;2023-05-27T03:26:50;10.30;82.70
17333;DHT22;8784;50.94667800;7.08448400;2023-05-27T03:29:17;10.30;82.80
17333;DHT22;8784;50.94667800;7.08448400;2023-05-27T03:31:44;10.30;83.10
17333;DHT22;8784;50.94667800;7.08448400;2023-05-27T03:34:11;10.30;83.30
17333;DHT22;8784;50.94667800;7.08448400;2023-05-27T03:36:38;10.20;83.30
17333;DHT22;8784;50.94667800;7.08448400;2023-05-27T03:39:06;10.10;83.80
17333;DHT22;8784;50.94667800;7.08448400;2023-05-27T03:41:35;10.10;83.90
17333;DHT22;8784;50.94667800;7.08448400;2023-05-27T03:44:07;10.10;84.00
17333;DHT22;8784;50.94667800;7.08448400;2023-05-27T03:46:34;10.10;84.30
17333;DHT22;8784;50.94667800;7.08448400;2023-05-27T03:49:01;10.10;84.50
17333;DHT22;8784;50.94667800;7.08448400;2023-05-27T03:51:28;10.10;84.60
17333;DHT22;8784;50.94667800;7.08448400;2023-05-27T03:53:55;10.10;84.70
17333;DHT22;8784;50.94667800;7.08448400;2023-05-27T03:56:24;10.00;84.90
17333;DHT22;8784;50.94667800;7.08448400;2023-05-27T03:58:50;10.00;85.30
17333;DHT22;8784;50.94667800;7.08448400;2023-05-27T04:01:17;10.00;85.40
17333;DHT22;8784;50.94667800;7.08448400;2023-05-27T04:03:46;10.10;85.60
17333;DHT22;8784;50.94667800;7.08448400;2023-05-27T04:06:13;10.10;85.70
17333;DHT22;8784;50.94667800;7.08448400;2023-05-27T04:08:41;10.10;85.90
17333;DHT22;8784;50.94667800;7.08448400;2023-05-27T04:11:10;10.20;86.00
17333;DHT22;8784;50.94667800;7.08448400;2023-05-27T04:13:42;10.20;86.00
17333;DHT22;8784;50.94667800;7.08448400;2023-05-27T04:16:09;10.20;86.00
17333;DHT22;8784;50.94667800;7.08448400;2023-05-27T04:18:36;10.30;86.40
17333;DHT22;8784;50.94667800;7.08448400;2023-05-27T04:21:02;10.20;86.60
17333;DHT22;8784;50.94667800;7.08448400;2023-05-27T04:23:30;10.20;86.70
17333;DHT22;8784;50.94667800;7.08448400;2023-05-27T04:25:56;10.30;86.80
17333;DHT22;8784;50.94667800;7.08448400;2023-05-27T04:28:23;10.30;87.00
17333;DHT22;8784;50.94667800;7.08448400;2023-05-27T04:30:52;10.30;86.90
17333;DHT22;8784;50.94667800;7.08448400;2023-05-27T04:33:19;10.40;87.10
17333;DHT22;8784;50.94667800;7.08448400;2023-05-27T04:35:47;10.40;87.30
17333;DHT22;8784;50.94667800;7.08448400;2023-05-27T04:38:14;10.40;87.50
17333;DHT22;8784;50.94667800;7.08448400;2023-05-27T04:40:42;10.50;87.50
17333;DHT22;8784;50.94667800;7.08448400;2023-05-27T04:43:10;10.60;87.60
17333;DHT22;8784;50.94667800;7.08448400;2023-05-27T04:45:40;10.60;87.70
17333;DHT22;8784;50.94667800;7.08448400;2023-05-27T04:48:09;10.70;87.90
17333;DHT22;8784;50.94667800;7.08448400;2023-05-27T04:50:36;10.80;88.00
17333;DHT22;8784;50.94667800;7.08448400;2023-05-27T04:53:03;10.80;87.90
17333;DHT22;8784;50.94667800;7.08448400;2023-05-27T04:55:30;10.90;88.10
17333;DHT22;8784;50.94667800;7.08448400;2023-05-27T04:57:58;11.00;88.10
17333;DHT22;8784;50.94667800;7.08448400;2023-05-27T05:00:28;11.10;88.20
17333;DHT22;8784;50.94667800;7.08448400;2023-05-27T05:03:04;11.20;88.10
17333;DHT22;8784;50.94667800;7.08448400;2023-05-27T05:05:34;11.30;88.20
17333;DHT22;8784;50.94667800;7.08448400;2023-05-27T05:08:01;11.40;88.10
17333;DHT22;8784;50.94667800;7.08448400;2023-05-27T05:10:30;11.50;88.20
17333;DHT22;8784;50.94667800;7.08448400;2023-05-27T05:12:57;11.50;88.10
17333;DHT22;8784;50.94667800;7.08448400;2023-05-27T05:15:24;11.60;88.00
17333;DHT22;8784;50.94667800;7.08448400;2023-05-27T05:17:51;11.70;87.90
17333;DHT22;8784;50.94667800;7.08448400;2023-05-27T05:20:18;11.80;88.00
17333;DHT22;8784;50.94667800;7.08448400;2023-05-27T05:22:46;11.90;88.00
17333;DHT22;8784;50.94667800;7.08448400;2023-05-27T05:25:16;11.90;88.00
17333;DHT22;8784;50.94667800;7.08448400;2023-05-27T05:27:43;12.00;88.70
17333;DHT22;8784;50.94667800;7.08448400;2023-05-27T05:30:11;12.10;87.90
17333;DHT22;8784;50.94667800;7.08448400;2023-05-27T05:32:38;12.20;87.90
17333;DHT22;8784;50.94667800;7.08448400;2023-05-27T05:35:05;12.20;87.90
17333;DHT22;8784;50.94667800;7.08448400;2023-05-27T05:37:32;12.40;87.70
17333;DHT22;8784;50.94667800;7.08448400;2023-05-27T05:40:00;12.50;87.50
17333;DHT22;8784;50.94667800;7.08448400;2023-05-27T05:42:27;12.60;87.30
17333;DHT22;8784;50.94667800;7.08448400;2023-05-27T05:44:54;12.60;87.10
17333;DHT22;8784;50.94667800;7.08448400;2023-05-27T05:47:21;12.70;87.10
17333;DHT22;8784;50.94667800;7.08448400;2023-05-27T05:49:48;12.80;87.00
17333;DHT22;8784;50.94667800;7.08448400;2023-05-27T05:52:15;12.90;86.80
17333;DHT22;8784;50.94667800;7.08448400;2023-05-27T05:54:42;13.00;87.40
17333;DHT22;8784;50.94667800;7.08448400;2023-05-27T05:57:10;13.10;86.50
17333;DHT22;8784;50.94667800;7.08448400;2023-05-27T05:59:37;13.20;86.20
17333;DHT22;8784;50.94667800;7.08448400;2023-05-27T06:02:04;13.30;86.00
17333;DHT22;8784;50.94667800;7.08448400;2023-05-27T06:04:31;13.30;85.90
17333;DHT22;8784;50.94667800;7.08448400;2023-05-27T06:06:58;13.50;85.90
17333;DHT22;8784;50.94667800;7.08448400;2023-05-27T06:09:25;13.50;85.40
17333;DHT22;8784;50.94667800;7.08448400;2023-05-27T06:11:52;13.50;85.40
17333;DHT22;8784;50.94667800;7.08448400;2023-05-27T06:14:20;13.60;85.30
17333;DHT22;8784;50.94667800;7.08448400;2023-05-27T06:16:48;13.70;85.10
17333;DHT22;8784;50.94667800;7.08448400;2023-05-27T06:19:15;13.80;84.80
17333;DHT22;8784;50.94667800;7.08448400;2023-05-27T06:21:41;14.00;84.60
17333;DHT22;8784;50.94667800;7.08448400;2023-05-27T06:24:08;14.20;84.50
17333;DHT22;8784;50.94667800;7.08448400;2023-05-27T06:26:35;14.40;83.90
17333;DHT22;8784;50.94667800;7.08448400;2023-05-27T06:29:02;14.70;83.30
17333;DHT22;8784;50.94667800;7.08448400;2023-05-27T06:31:31;14.90;82.70
17333;DHT22;8784;50.94667800;7.08448400;2023-05-27T06:33:58;15.20;82.00
17333;DHT22;8784;50.94667800;7.08448400;2023-05-27T06:36:25;15.50;81.50
17333;DHT22;8784;50.94667800;7.08448400;2023-05-27T06:38:54;16.00;80.60
17333;DHT22;8784;50.94667800;7.08448400;2023-05-27T06:41:21;16.60;79.20
17333;DHT22;8784;50.94667800;7.08448400;2023-05-27T06:43:48;17.30;77.20
17333;DHT22;8784;50.94667800;7.08448400;2023-05-27T06:46:16;18.90;75.00
17333;DHT22;8784;50.94667800;7.08448400;2023-05-27T06:48:44;21.60;72.10
17333;DHT22;8784;50.94667800;7.08448400;2023-05-27T06:51:11;24.00;68.00
17333;DHT22;8784;50.94667800;7.08448400;2023-05-27T06:53:38;26.20;64.40
17333;DHT22;8784;50.94667800;7.08448400;2023-05-27T06:56:05;28.30;60.50
17333;DHT22;8784;50.94667800;7.08448400;2023-05-27T06:58:32;30.00;57.90
17333;DHT22;8784;50.94667800;7.08448400;2023-05-27T07:00:59;31.40;55.20
17333;DHT22;8784;50.94667800;7.08448400;2023-05-27T07:03:26;32.50;53.20
17333;DHT22;8784;50.94667800;7.08448400;2023-05-27T07:05:54;33.50;51.70
17333;DHT22;8784;50.94667800;7.08448400;2023-05-27T07:08:21;34.50;49.80
17333;DHT22;8784;50.94667800;7.08448400;2023-05-27T07:10:48;35.10;49.10
17333;DHT22;8784;50.94667800;7.08448400;2023-05-27T07:13:14;35.90;47.40
17333;DHT22;8784;50.94667800;7.08448400;2023-05-27T07:15:42;36.30;45.70
17333;DHT22;8784;50.94667800;7.08448400;2023-05-27T07:18:08;36.80;45.30
17333;DHT22;8784;50.94667800;7.08448400;2023-05-27T07:20:35;37.40;44.20
17333;DHT22;8784;50.94667800;7.08448400;2023-05-27T07:23:04;37.80;43.20
17333;DHT22;8784;50.94667800;7.08448400;2023-05-27T07:25:31;38.10;42.70
17333;DHT22;8784;50.94667800;7.08448400;2023-05-27T07:27:57;38.50;41.90
17333;DHT22;8784;50.94667800;7.08448400;2023-05-27T07:30:24;38.80;40.90
17333;DHT22;8784;50.94667800;7.08448400;2023-05-27T07:32:52;39.20;40.80
17333;DHT22;8784;50.94667800;7.08448400;2023-05-27T07:35:20;39.60;39.60
17333;DHT22;8784;50.94667800;7.08448400;2023-05-27T07:37:47;40.00;39.30
17333;DHT22;8784;50.94667800;7.08448400;2023-05-27T07:40:15;40.40;38.60
17333;DHT22;8784;50.94667800;7.08448400;2023-05-27T07:42:42;40.80;37.50
17333;DHT22;8784;50.94667800;7.08448400;2023-05-27T07:45:10;41.00;37.40
17333;DHT22;8784;50.94667800;7.08448400;2023-05-27T07:47:37;41.20;36.90
17333;DHT22;8784;50.94667800;7.08448400;2023-05-27T07:50:04;41.50;36.30
17333;DHT22;8784;50.94667800;7.08448400;2023-05-27T07:52:32;41.80;36.40
17333;DHT22;8784;50.94667800;7.08448400;2023-05-27T07:54:59;41.80;36.10
17333;DHT22;8784;50.94667800;7.08448400;2023-05-27T07:57:27;41.50;35.90
17333;DHT22;8784;50.94667800;7.08448400;2023-05-27T07:59:54;41.80;36.10
17333;DHT22;8784;50.94667800;7.08448400;2023-05-27T08:02:21;42.20;35.00
17333;DHT22;8784;50.94667800;7.08448400;2023-05-27T08:04:48;42.50;34.80
17333;DHT22;8784;50.94667800;7.08448400;2023-05-27T08:07:15;42.70;34.60
17333;DHT22;8784;50.94667800;7.08448400;2023-05-27T08:09:42;42.90;34.30
17333;DHT22;8784;50.94667800;7.08448400;2023-05-27T08:12:09;43.10;34.00
17333;DHT22;8784;50.94667800;7.08448400;2023-05-27T08:14:38;43.30;33.70
17333;DHT22;8784;50.94667800;7.08448400;2023-05-27T08:17:06;43.50;33.20
17333;DHT22;8784;50.94667800;7.08448400;2023-05-27T08:19:33;43.80;33.50
17333;DHT22;8784;50.94667800;7.08448400;2023-05-27T08:22:00;44.00;33.40
17333;DHT22;8784;50.94667800;7.08448400;2023-05-27T08:24:27;44.40;33.20
17333;DHT22;8784;50.94667800;7.08448400;2023-05-27T08:26:56;44.60;32.90
17333;DHT22;8784;50.94667800;7.08448400;2023-05-27T08:29:23;44.40;32.30
17333;DHT22;8784;50.94667800;7.08448400;2023-05-27T08:31:54;44.50;32.20
17333;DHT22;8784;50.94667800;7.08448400;2023-05-27T08:34:21;44.70;32.00
17333;DHT22;8784;50.94667800;7.08448400;2023-05-27T08:36:48;44.90;32.00
17333;DHT22;8784;50.94667800;7.08448400;2023-05-27T08:39:15;45.20;31.80
17333;DHT22;8784;50.94667800;7.08448400;2023-05-27T08:41:42;45.50;31.40
17333;DHT22;8784;50.94667800;7.08448400;2023-05-27T08:44:09;45.70;31.00
17333;DHT22;8784;50.94667800;7.08448400;2023-05-27T08:46:36;45.70;30.80
17333;DHT22;8784;50.94667800;7.08448400;2023-05-27T08:49:06;45.80;30.40
17333;DHT22;8784;50.94667800;7.08448400;2023-05-27T08:51:34;45.70;30.20
17333;DHT22;8784;50.94667800;7.08448400;2023-05-27T08:54:01;45.80;30.20
17333;DHT22;8784;50.94667800;7.08448400;2023-05-27T08:56:30;46.00;30.00
17333;DHT22;8784;50.94667800;7.08448400;2023-05-27T08:58:58;46.30;29.80
17333;DHT22;8784;50.94667800;7.08448400;2023-05-27T09:01:26;46.50;29.70
17333;DHT22;8784;50.94667800;7.08448400;2023-05-27T09:03:54;46.70;29.60
17333;DHT22;8784;50.94667800;7.08448400;2023-05-27T09:06:23;46.70;29.30
17333;DHT22;8784;50.94667800;7.08448400;2023-05-27T09:08:50;46.50;29.20
17333;DHT22;8784;50.94667800;7.08448400;2023-05-27T09:11:25;46.20;29.40
17333;DHT22;8784;50.94667800;7.08448400;2023-05-27T09:13:53;46.20;28.70
17333;DHT22;8784;50.94667800;7.08448400;2023-05-27T09:16:22;46.20;28.70
17333;DHT22;8784;50.94667800;7.08448400;2023-05-27T09:18:49;45.30;29.00
17333;DHT22;8784;50.94667800;7.08448400;2023-05-27T09:21:16;45.40;29.00
17333;DHT22;8784;50.94667800;7.08448400;2023-05-27T09:23:45;45.80;28.80
17333;DHT22;8784;50.94667800;7.08448400;2023-05-27T09:26:12;46.10;28.30
17333;DHT22;8784;50.94667800;7.08448400;2023-05-27T09:28:39;45.30;28.60
17333;DHT22;8784;50.94667800;7.08448400;2023-05-27T09:31:08;44.20;28.40
17333;DHT22;8784;50.94667800;7.08448400;2023-05-27T09:33:36;42.40;29.30
17333;DHT22;8784;50.94667800;7.08448400;2023-05-27T09:36:04;41.80;29.50
17333;DHT22;8784;50.94667800;7.08448400;2023-05-27T09:38:33;40.70;29.20
17333;DHT22;8784;50.94667800;7.08448400;2023-05-27T09:41:02;39.80;29.80
17333;DHT22;8784;50.94667800;7.08448400;2023-05-27T09:43:29;39.20;29.50
17333;DHT22;8784;50.94667800;7.08448400;2023-05-27T09:45:59;38.10;30.40
17333;DHT22;8784;50.94667800;7.08448400;2023-05-27T09:48:28;37.10;30.20
17333;DHT22;8784;50.94667800;7.08448400;2023-05-27T09:50:56;36.30;31.40
17333;DHT22;8784;50.94667800;7.08448400;2023-05-27T09:53:25;36.00;31.50
17333;DHT22;8784;50.94667800;7.08448400;2023-05-27T09:55:53;35.50;31.60
17333;DHT22;8784;50.94667800;7.08448400;2023-05-27T09:58:22;35.40;31.90
17333;DHT22;8784;50.94667800;7.08448400;2023-05-27T10:00:50;35.60;31.70
17333;DHT22;8784;50.94667800;7.08448400;2023-05-27T10:03:20;35.40;32.00
17333;DHT22;8784;50.94667800;7.08448400;2023-05-27T10:05:49;35.00;32.40
17333;DHT22;8784;50.94667800;7.08448400;2023-05-27T10:08:17;35.00;32.40
17333;DHT22;8784;50.94667800;7.08448400;2023-05-27T10:10:44;35.20;32.40
17333;DHT22;8784;50.94667800;7.08448400;2023-05-27T10:13:13;35.50;32.30
17333;DHT22;8784;50.94667800;7.08448400;2023-05-27T10:15:46;35.60;32.40
17333;DHT22;8784;50.94667800;7.08448400;2023-05-27T10:18:22;35.90;32.20
17333;DHT22;8784;50.94667800;7.08448400;2023-05-27T10:20:50;35.90;32.60
17333;DHT22;8784;50.94667800;7.08448400;2023-05-27T10:23:19;35.70;31.90
17333;DHT22;8784;50.94667800;7.08448400;2023-05-27T10:25:48;35.20;32.20
17333;DHT22;8784;50.94667800;7.08448400;2023-05-27T10:28:26;35.30;32.70
17333;DHT22;8784;50.94667800;7.08448400;2023-05-27T10:31:03;35.20;32.20
17333;DHT22;8784;50.94667800;7.08448400;2023-05-27T10:33:33;35.20;32.10
17333;DHT22;8784;50.94667800;7.08448400;2023-05-27T10:36:08;34.90;31.70
17333;DHT22;8784;50.94667800;7.08448400;2023-05-27T10:38:36;34.40;32.10
17333;DHT22;8784;50.94667800;7.08448400;2023-05-27T10:41:04;34.40;32.40
17333;DHT22;8784;50.94667800;7.08448400;2023-05-27T10:43:32;34.20;32.50
17333;DHT22;8784;50.94667800;7.08448400;2023-05-27T10:46:06;34.20;32.70
17333;DHT22;8784;50.94667800;7.08448400;2023-05-27T10:48:33;34.20;32.80
17333;DHT22;8784;50.94667800;7.08448400;2023-05-27T10:51:01;34.30;32.50
17333;DHT22;8784;50.94667800;7.08448400;2023-05-27T10:53:29;33.90;32.60
17333;DHT22;8784;50.94667800;7.08448400;2023-05-27T10:55:58;33.80;33.00
17333;DHT22;8784;50.94667800;7.08448400;2023-05-27T10:58:25;33.90;32.80
17333;DHT22;8784;50.94667800;7.08448400;2023-05-27T11:00:53;33.80;32.90
17333;DHT22;8784;50.94667800;7.08448400;2023-05-27T11:03:23;33.80;33.10
17333;DHT22;8784;50.94667800;7.08448400;2023-05-27T11:05:58;33.30;32.70
17333;DHT22;8784;50.94667800;7.08448400;2023-05-27T11:08:25;32.10;32.90
17333;DHT22;8784;50.94667800;7.08448400;2023-05-27T11:10:58;31.50;33.80
17333;DHT22;8784;50.94667800;7.08448400;2023-05-27T11:13:30;31.30;34.30
17333;DHT22;8784;50.94667800;7.08448400;2023-05-27T11:16:01;31.00;34.30
17333;DHT22;8784;50.94667800;7.08448400;2023-05-27T11:18:40;30.40;34.50
17333;DHT22;8784;50.94667800;7.08448400;2023-05-27T11:21:08;29.80;34.90
17333;DHT22;8784;50.94667800;7.08448400;2023-05-27T11:23:40;29.60;35.50
17333;DHT22;8784;50.94667800;7.08448400;2023-05-27T11:26:12;29.40;35.40
17333;DHT22;8784;50.94667800;7.08448400;2023-05-27T11:28:45;29.00;35.40
17333;DHT22;8784;50.94667800;7.08448400;2023-05-27T11:31:13;28.60;35.70
17333;DHT22;8784;50.94667800;7.08448400;2023-05-27T11:33:43;28.30;35.70
17333;DHT22;8784;50.94667800;7.08448400;2023-05-27T11:36:12;28.00;36.00
17333;DHT22;8784;50.94667800;7.08448400;2023-05-27T11:38:46;27.80;36.20
17333;DHT22;8784;50.94667800;7.08448400;2023-05-27T11:41:13;27.60;36.30
17333;DHT22;8784;50.94667800;7.08448400;2023-05-27T11:43:47;27.40;36.20
17333;DHT22;8784;50.94667800;7.08448400;2023-05-27T11:46:14;27.20;37.20
17333;DHT22;8784;50.94667800;7.08448400;2023-05-27T11:48:43;27.00;36.90
17333;DHT22;8784;50.94667800;7.08448400;2023-05-27T11:51:10;27.00;36.50
17333;DHT22;8784;50.94667800;7.08448400;2023-05-27T11:53:39;26.90;36.60
17333;DHT22;8784;50.94667800;7.08448400;2023-05-27T11:56:06;26.60;36.80
17333;DHT22;8784;50.94667800;7.08448400;2023-05-27T11:58:33;26.50;36.80
17333;DHT22;8784;50.94667800;7.08448400;2023-05-27T12:01:02;26.40;37.30
17333;DHT22;8784;50.94667800;7.08448400;2023-05-27T12:03:29;26.60;37.90
17333;DHT22;8784;50.94667800;7.08448400;2023-05-27T12:05:58;26.70;37.40
17333;DHT22;8784;50.94667800;7.08448400;2023-05-27T12:08:25;26.60;37.10
17333;DHT22;8784;50.94667800;7.08448400;2023-05-27T12:10:52;26.50;36.90
17333;DHT22;8784;50.94667800;7.08448400;2023-05-27T12:13:20;26.50;37.20
17333;DHT22;8784;50.94667800;7.08448400;2023-05-27T12:15:48;26.50;37.10
17333;DHT22;8784;50.94667800;7.08448400;2023-05-27T12:18:15;26.50;37.00
17333;DHT22;8784;50.94667800;7.08448400;2023-05-27T12:20:43;26.50;37.20
17333;DHT22;8784;50.94667800;7.08448400;2023-05-27T12:23:12;26.50;37.10
17333;DHT22;8784;50.94667800;7.08448400;2023-05-27T12:25:39;26.50;36.90
17333;DHT22;8784;50.94667800;7.08448400;2023-05-27T12:28:07;26.50;37.20
17333;DHT22;8784;50.94667800;7.08448400;2023-05-27T12:30:34;26.60;37.20
17333;DHT22;8784;50.94667800;7.08448400;2023-05-27T12:33:02;26.60;37.10
17333;DHT22;8784;50.94667800;7.08448400;2023-05-27T12:35:29;26.60;37.20
17333;DHT22;8784;50.94667800;7.08448400;2023-05-27T12:37:56;26.40;36.80
17333;DHT22;8784;50.94667800;7.08448400;2023-05-27T12:40:24;26.30;37.10
17333;DHT22;8784;50.94667800;7.08448400;2023-05-27T12:42:51;26.20;37.30
17333;DHT22;8784;50.94667800;7.08448400;2023-05-27T12:45:19;26.30;37.60
17333;DHT22;8784;50.94667800;7.08448400;2023-05-27T12:47:47;26.40;36.90
17333;DHT22;8784;50.94667800;7.08448400;2023-05-27T12:50:15;26.20;37.50
17333;DHT22;8784;50.94667800;7.08448400;2023-05-27T12:52:42;26.20;37.00
17333;DHT22;8784;50.94667800;7.08448400;2023-05-27T12:55:12;26.20;36.90
17333;DHT22;8784;50.94667800;7.08448400;2023-05-27T12:57:40;26.10;36.80
17333;DHT22;8784;50.94667800;7.08448400;2023-05-27T13:00:08;26.00;37.10
17333;DHT22;8784;50.94667800;7.08448400;2023-05-27T13:02:36;26.00;37.20
17333;DHT22;8784;50.94667800;7.08448400;2023-05-27T13:05:04;26.00;37.00
17333;DHT22;8784;50.94667800;7.08448400;2023-05-27T13:07:32;25.90;36.50
17333;DHT22;8784;50.94667800;7.08448400;2023-05-27T13:10:01;25.90;36.50
17333;DHT22;8784;50.94667800;7.08448400;2023-05-27T13:12:29;25.80;36.40
17333;DHT22;8784;50.94667800;7.08448400;2023-05-27T13:14:58;25.70;36.20
17333;DHT22;8784;50.94667800;7.08448400;2023-05-27T13:17:26;25.70;36.70
17333;DHT22;8784;50.94667800;7.08448400;2023-05-27T13:19:53;25.60;37.00
17333;DHT22;8784;50.94667800;7.08448400;2023-05-27T13:22:20;25.70;37.20
17333;DHT22;8784;50.94667800;7.08448400;2023-05-27T13:24:47;25.80;36.90
17333;DHT22;8784;50.94667800;7.08448400;2023-05-27T13:27:14;25.70;36.30
17333;DHT22;8784;50.94667800;7.08448400;2023-05-27T13:29:41;25.60;36.50
17333;DHT22;8784;50.94667800;7.08448400;2023-05-27T13:32:10;25.60;36.50
17333;DHT22;8784;50.94667800;7.08448400;2023-05-27T13:34:37;25.50;36.80
17333;DHT22;8784;50.94667800;7.08448400;2023-05-27T13:37:04;25.50;36.80
17333;DHT22;8784;50.94667800;7.08448400;2023-05-27T13:39:31;25.60;37.00